createdAt,value
2018-09-15T00:00:04.348Z,55.67
2018-09-15T00:02:33.893Z,55.48
2018-09-15T00:05:03.428Z,55.82
2018-09-15T00:07:32.915Z,55.22
2018-09-15T00:10:02.459Z,55.32
2018-09-15T00:12:31.952Z,55.25
2018-09-15T00:15:01.500Z,55.68
2018-09-15T00:17:31.087Z,55.67
2018-09-15T00:20:00.739Z,55.41
2018-09-15T00:22:30.299Z,55.50
2018-09-15T00:24:59.875Z,55.91
2018-09-15T00:27:29.419Z,55.46
2018-09-15T00:29:58.952Z,56.04
2018-09-15T00:32:28.509Z,56.45
2018-09-15T00:34:57.998Z,56.07
2018-09-15T00:37:27.636Z,56.40
2018-09-15T00:39:57.146Z,56.53
2018-09-15T00:42:26.702Z,57.04
2018-09-15T00:44:56.210Z,56.60
2018-09-15T00:47:25.736Z,56.90
2018-09-15T00:49:55.279Z,57.23
2018-09-15T00:52:24.802Z,57.23
2018-09-15T00:54:54.339Z,57.18
2018-09-15T00:57:23.835Z,56.92
2018-09-15T00:59:53.383Z,57.55
2018-09-15T01:02:22.859Z,57.28
2018-09-15T01:04:52.398Z,57.13
2018-09-15T01:07:21.895Z,57.27
2018-09-15T01:09:51.431Z,57.58
2018-09-15T01:12:20.923Z,56.99
2018-09-15T01:14:50.480Z,57.51
2018-09-15T01:17:20.047Z,56.98
2018-09-15T01:19:49.598Z,57.10
2018-09-15T01:22:19.131Z,57.60
2018-09-15T01:24:48.674Z,57.33
2018-09-15T01:27:18.207Z,57.24
2018-09-15T01:29:47.686Z,57.29
2018-09-15T01:32:17.251Z,57.64
2018-09-15T01:34:46.878Z,57.55
2018-09-15T01:37:16.407Z,57.62
2018-09-15T01:39:45.913Z,57.77
2018-09-15T01:42:15.436Z,57.96
2018-09-15T01:44:44.968Z,58.49
2018-09-15T01:47:14.528Z,58.14
2018-09-15T01:49:44.119Z,58.27
2018-09-15T01:52:13.747Z,58.40
2018-09-15T01:54:43.386Z,58.22
2018-09-15T01:57:13.249Z,58.33
2018-09-15T01:59:42.751Z,58.62
2018-09-15T02:02:12.322Z,58.74
2018-09-15T02:04:41.815Z,58.97
2018-09-15T02:07:11.335Z,58.61
2018-09-15T02:09:40.991Z,58.38
2018-09-15T02:12:10.484Z,57.99
2018-09-15T02:14:40.010Z,57.89
2018-09-15T02:17:09.659Z,57.74
2018-09-15T02:19:39.198Z,58.66
2018-09-15T02:22:08.790Z,58.87
2018-09-15T02:24:38.322Z,59.05
2018-09-15T02:27:07.850Z,58.90
2018-09-15T02:29:37.406Z,58.55
2018-09-15T02:32:07.089Z,58.58
2018-09-15T02:34:36.572Z,58.59
2018-09-15T02:37:06.264Z,58.29
2018-09-15T02:39:35.760Z,58.79
2018-09-15T02:42:05.378Z,59.13
2018-09-15T02:44:34.858Z,58.42
2018-09-15T02:47:04.482Z,59.06
2018-09-15T02:49:33.979Z,59.03
2018-09-15T02:52:03.512Z,59.46
2018-09-15T02:54:33.007Z,58.85
2018-09-15T02:57:02.563Z,59.35
2018-09-15T02:59:32.064Z,59.66
2018-09-15T03:02:01.605Z,58.89
2018-09-15T03:04:31.152Z,59.21
2018-09-15T03:07:00.644Z,59.28
2018-09-15T03:09:30.139Z,59.59
2018-09-15T03:11:59.675Z,59.28
2018-09-15T03:14:29.268Z,59.22
2018-09-15T03:16:58.778Z,58.89
2018-09-15T03:19:28.327Z,59.28
2018-09-15T03:21:57.822Z,59.00
2018-09-15T03:24:27.683Z,58.96
2018-09-15T03:26:57.199Z,58.66
2018-09-15T03:29:26.716Z,58.50
2018-09-15T03:31:56.253Z,58.79
2018-09-15T03:34:25.828Z,58.58
2018-09-15T03:36:55.360Z,59.08
2018-09-15T03:39:24.888Z,58.32
2018-09-15T03:41:54.450Z,58.78
2018-09-15T03:44:23.959Z,58.53
2018-09-15T03:46:53.447Z,58.54
2018-09-15T03:49:23.024Z,58.91
2018-09-15T03:51:52.593Z,58.41
2018-09-15T03:54:22.407Z,58.13
2018-09-15T03:56:52.106Z,58.48
2018-09-15T03:59:21.635Z,58.90
2018-09-15T04:01:51.133Z,58.72
2018-09-15T04:04:20.680Z,58.71
2018-09-15T04:06:50.178Z,58.56
2018-09-15T04:09:19.734Z,58.84
2018-09-15T04:11:49.223Z,58.82
2018-09-15T04:14:18.743Z,58.98
2018-09-15T04:16:48.226Z,58.93
2018-09-15T04:19:17.744Z,59.19
2018-09-15T04:21:47.247Z,59.22
2018-09-15T04:24:16.779Z,59.12
2018-09-15T04:26:46.347Z,59.20
2018-09-15T04:29:15.863Z,59.31
2018-09-15T04:31:45.435Z,59.27
2018-09-15T04:34:14.925Z,58.94
2018-09-15T04:36:44.464Z,58.47
2018-09-15T04:39:13.946Z,58.03
2018-09-15T04:41:43.525Z,58.62
2018-09-15T04:44:13.035Z,58.23
2018-09-15T04:46:42.567Z,58.02
2018-09-15T04:49:12.102Z,57.74
2018-09-15T04:51:41.646Z,56.91
2018-09-15T04:54:11.175Z,57.64
2018-09-15T04:56:40.666Z,56.92
2018-09-15T04:59:10.222Z,57.00
2018-09-15T05:01:39.742Z,56.47
2018-09-15T05:04:09.286Z,56.04
2018-09-15T05:06:38.936Z,56.26
2018-09-15T05:09:10.830Z,54.84
2018-09-15T05:11:40.510Z,55.09
2018-09-15T05:14:10.047Z,54.74
2018-09-15T05:16:39.576Z,54.47
2018-09-15T05:19:09.107Z,53.32
2018-09-15T05:21:38.616Z,53.19
2018-09-15T05:24:08.177Z,52.51
2018-09-15T05:26:37.750Z,51.49
2018-09-15T05:29:07.252Z,50.80
2018-09-15T05:31:36.747Z,50.96
2018-09-15T05:34:06.331Z,50.13
2018-09-15T05:36:35.882Z,49.98
2018-09-15T05:39:08.491Z,48.55
2018-09-15T05:41:38.011Z,47.55
2018-09-15T05:44:07.567Z,46.81
2018-09-15T05:46:37.231Z,46.42
2018-09-15T05:49:06.759Z,46.25
2018-09-15T05:51:36.299Z,46.23
2018-09-15T05:54:05.795Z,45.63
2018-09-15T05:56:35.408Z,45.68
2018-09-15T05:59:04.930Z,45.79
2018-09-15T06:01:34.607Z,45.07
2018-09-15T06:04:04.152Z,44.63
2018-09-15T06:06:33.693Z,43.87
2018-09-15T06:09:03.390Z,43.46
2018-09-15T06:11:32.918Z,43.42
2018-09-15T06:14:02.414Z,42.87
2018-09-15T06:16:31.939Z,42.23
2018-09-15T06:19:01.459Z,42.08
2018-09-15T06:21:31.071Z,42.07
2018-09-15T06:24:00.604Z,41.79
2018-09-15T06:26:30.782Z,41.62
2018-09-15T06:29:00.444Z,41.61
2018-09-15T06:31:30.088Z,40.59
2018-09-15T06:33:59.635Z,40.73
2018-09-15T06:36:29.155Z,40.15
2018-09-15T06:38:58.748Z,39.67
2018-09-15T06:41:28.279Z,39.35
2018-09-15T06:43:57.799Z,38.46
2018-09-15T06:46:27.307Z,38.62
2018-09-15T06:48:56.795Z,39.02
2018-09-15T06:51:26.381Z,37.55
2018-09-15T06:53:55.918Z,37.97
2018-09-15T06:56:25.490Z,37.08
2018-09-15T06:58:55.080Z,37.28
2018-09-15T07:01:24.722Z,37.11
2018-09-15T07:03:54.223Z,37.22
2018-09-15T07:06:23.763Z,37.99
2018-09-15T07:08:53.236Z,36.65
2018-09-15T07:11:22.762Z,37.18
2018-09-15T07:13:52.394Z,36.85
2018-09-15T07:16:21.970Z,37.59
2018-09-15T07:18:51.567Z,37.14
2018-09-15T07:21:21.197Z,37.61
2018-09-15T07:23:50.731Z,37.39
2018-09-15T07:26:20.774Z,36.78
2018-09-15T07:28:50.275Z,36.63
2018-09-15T07:31:19.831Z,37.20
2018-09-15T07:33:49.398Z,36.41
2018-09-15T07:36:18.987Z,36.29
2018-09-15T07:38:48.491Z,35.96
2018-09-15T07:41:18.019Z,36.22
2018-09-15T07:43:47.595Z,36.16
2018-09-15T07:46:17.102Z,36.68
2018-09-15T07:48:46.715Z,36.39
2018-09-15T07:51:16.230Z,35.64
2018-09-15T07:53:45.811Z,35.58
2018-09-15T07:56:15.365Z,34.71
2018-09-15T07:58:44.911Z,35.25
2018-09-15T08:01:14.399Z,35.53
2018-09-15T08:03:44.011Z,34.78
2018-09-15T08:06:13.579Z,34.96
2018-09-15T08:08:43.072Z,35.01
2018-09-15T08:11:12.613Z,34.30
2018-09-15T08:13:42.102Z,33.45
2018-09-15T08:16:11.627Z,33.30
2018-09-15T08:18:41.139Z,33.03
2018-09-15T08:21:10.819Z,32.67
2018-09-15T08:23:40.325Z,33.14
2018-09-15T08:26:09.901Z,32.17
2018-09-15T08:28:39.417Z,31.94
2018-09-15T08:31:08.938Z,32.77
2018-09-15T08:33:38.427Z,32.03
2018-09-15T08:36:08.006Z,31.79
2018-09-15T08:38:37.543Z,31.03
2018-09-15T08:41:07.193Z,31.37
2018-09-15T08:43:36.692Z,30.41
2018-09-15T08:46:06.334Z,30.55
2018-09-15T08:48:35.835Z,30.21
2018-09-15T08:51:05.415Z,29.11
2018-09-15T08:53:34.926Z,29.57
2018-09-15T08:56:04.616Z,29.86
2018-09-15T08:58:34.123Z,29.78
2018-09-15T09:01:03.679Z,28.59
2018-09-15T09:03:33.184Z,29.56
2018-09-15T09:06:02.750Z,29.42
2018-09-15T09:08:32.252Z,29.16
2018-09-15T09:11:01.805Z,28.97
2018-09-15T09:13:31.302Z,28.50
2018-09-15T09:16:00.857Z,28.47
2018-09-15T09:18:30.358Z,27.84
2018-09-15T09:20:59.929Z,28.46
2018-09-15T09:23:29.561Z,27.87
2018-09-15T09:25:59.124Z,27.90
2018-09-15T09:28:28.678Z,28.00
2018-09-15T09:30:58.196Z,27.44
2018-09-15T09:33:27.763Z,27.33
2018-09-15T09:35:57.270Z,27.12
2018-09-15T09:38:26.872Z,27.04
2018-09-15T09:40:56.366Z,27.03
2018-09-15T09:43:25.855Z,26.96
2018-09-15T09:45:55.437Z,27.30
2018-09-15T09:48:24.999Z,26.56
2018-09-15T09:50:54.539Z,26.69
2018-09-15T09:53:24.054Z,26.99
2018-09-15T09:55:53.576Z,27.65
2018-09-15T09:58:23.143Z,27.45
2018-09-15T10:00:59.291Z,27.75
2018-09-15T10:03:28.824Z,27.20
2018-09-15T10:05:58.371Z,26.63
2018-09-15T10:08:27.918Z,26.89
2018-09-15T10:10:57.519Z,26.57
2018-09-15T10:13:27.120Z,26.58
2018-09-15T10:15:56.642Z,26.25
2018-09-15T10:18:26.236Z,26.40
2018-09-15T10:20:55.836Z,26.61
2018-09-15T10:23:25.491Z,26.21
2018-09-15T10:25:55.018Z,25.88
2018-09-15T10:28:24.542Z,26.50
2018-09-15T10:30:54.191Z,26.08
2018-09-15T10:33:23.735Z,26.03
2018-09-15T10:35:53.259Z,26.49
2018-09-15T10:38:22.786Z,26.74
2018-09-15T10:40:52.361Z,26.24
2018-09-15T10:43:21.879Z,26.74
2018-09-15T10:45:51.522Z,27.00
2018-09-15T10:48:21.102Z,26.87
2018-09-15T10:50:50.602Z,26.98
2018-09-15T10:53:20.312Z,25.75
2018-09-15T10:55:49.965Z,25.20
2018-09-15T10:58:19.528Z,25.37
2018-09-15T11:00:49.181Z,24.48
2018-09-15T11:03:18.814Z,23.71
2018-09-15T11:05:48.472Z,24.16
2018-09-15T11:08:18.002Z,24.09
2018-09-15T11:10:47.651Z,24.84
2018-09-15T11:13:17.335Z,24.56
2018-09-15T11:15:46.835Z,24.58
2018-09-15T11:18:16.455Z,24.09
2018-09-15T11:20:45.963Z,23.70
2018-09-15T11:23:15.554Z,24.07
2018-09-15T11:25:45.197Z,24.37
2018-09-15T11:28:14.860Z,23.87
2018-09-15T11:30:44.412Z,23.73
2018-09-15T11:33:14.109Z,23.81
2018-09-15T11:35:43.641Z,24.52
2018-09-15T11:38:13.182Z,23.82
2018-09-15T11:40:42.797Z,23.08
2018-09-15T11:43:12.713Z,23.29
2018-09-15T11:45:42.238Z,23.55
2018-09-15T11:48:11.763Z,23.19
2018-09-15T11:50:41.323Z,24.41
2018-09-15T11:53:10.975Z,23.50
2018-09-15T11:55:41.317Z,24.15
2018-09-15T11:58:10.823Z,24.69
2018-09-15T12:00:43.970Z,24.47
2018-09-15T12:03:13.475Z,24.00
2018-09-15T12:05:43.021Z,22.37
2018-09-15T12:08:12.622Z,23.26
2018-09-15T12:10:42.183Z,23.14
2018-09-15T12:13:11.765Z,23.06
2018-09-15T12:15:41.327Z,22.95
2018-09-15T12:18:10.851Z,22.92
2018-09-15T12:20:40.458Z,22.87
2018-09-15T12:23:10.059Z,22.13
2018-09-15T12:25:39.741Z,22.46
2018-09-15T12:28:09.348Z,21.57
2018-09-15T12:30:38.897Z,21.74
2018-09-15T12:33:08.415Z,21.85
2018-09-15T12:35:37.972Z,21.81
2018-09-15T12:38:07.558Z,21.79
2018-09-15T12:40:37.231Z,22.19
2018-09-15T12:43:06.830Z,22.20
2018-09-15T12:45:36.484Z,22.32
2018-09-15T12:48:06.139Z,21.93
2018-09-15T12:50:35.763Z,22.15
2018-09-15T12:53:05.307Z,22.23
2018-09-15T12:55:34.858Z,22.54
2018-09-15T12:58:04.367Z,21.79
2018-09-15T13:00:33.947Z,21.86
2018-09-15T13:03:03.434Z,21.42
2018-09-15T13:05:33.052Z,21.20
2018-09-15T13:08:02.683Z,21.28
2018-09-15T13:10:32.186Z,21.26
2018-09-15T13:13:01.802Z,21.16
2018-09-15T13:15:31.455Z,20.61
2018-09-15T13:18:00.927Z,21.49
2018-09-15T13:20:30.517Z,21.67
2018-09-15T13:23:00.178Z,21.52
2018-09-15T13:25:29.792Z,21.33
2018-09-15T13:27:59.399Z,20.91
2018-09-15T13:30:29.048Z,21.04
2018-09-15T13:32:58.678Z,20.93
2018-09-15T13:35:28.277Z,21.28
2018-09-15T13:37:57.909Z,20.95
2018-09-15T13:40:27.517Z,21.03
2018-09-15T13:42:57.055Z,21.29
2018-09-15T13:45:26.557Z,21.43
2018-09-15T13:47:56.192Z,21.48
2018-09-15T13:50:25.692Z,19.84
2018-09-15T13:52:55.321Z,19.85
2018-09-15T13:55:25.687Z,20.60
2018-09-15T13:57:55.316Z,20.36
2018-09-15T14:00:24.867Z,20.43
2018-09-15T14:02:54.464Z,20.34
2018-09-15T14:05:24.054Z,20.31
2018-09-15T14:07:53.653Z,19.05
2018-09-15T14:10:23.228Z,19.83
2018-09-15T14:12:52.848Z,19.54
2018-09-15T14:15:22.512Z,19.79
2018-09-15T14:17:52.183Z,19.83
2018-09-15T14:20:21.877Z,19.79
2018-09-15T14:22:51.443Z,19.65
2018-09-15T14:25:20.991Z,19.51
2018-09-15T14:27:50.504Z,19.63
2018-09-15T14:30:20.412Z,20.31
2018-09-15T14:32:49.975Z,20.63
2018-09-15T14:35:19.555Z,20.90
2018-09-15T14:37:49.184Z,21.00
2018-09-15T14:40:18.739Z,21.00
2018-09-15T14:42:48.321Z,20.47
2018-09-15T14:45:17.939Z,20.53
2018-09-15T14:47:47.470Z,20.16
2018-09-15T14:50:17.066Z,21.03
2018-09-15T14:52:46.588Z,21.90
2018-09-15T14:55:16.153Z,22.58
2018-09-15T14:57:45.683Z,22.41
2018-09-15T15:00:15.215Z,22.17
2018-09-15T15:02:46.683Z,22.63
2018-09-15T15:05:16.264Z,23.26
2018-09-15T15:07:45.873Z,22.68
2018-09-15T15:10:15.455Z,22.27
2018-09-15T15:12:45.086Z,22.18
2018-09-15T15:15:14.658Z,22.52
2018-09-15T15:17:44.403Z,22.64
2018-09-15T15:20:13.968Z,22.70
2018-09-15T15:22:43.582Z,23.18
2018-09-15T15:25:13.139Z,23.22
2018-09-15T15:27:42.700Z,23.49
2018-09-15T15:30:12.315Z,23.37
2018-09-15T15:32:42.000Z,24.29
2018-09-15T15:35:11.543Z,23.95
2018-09-15T15:37:41.194Z,23.95
2018-09-15T15:40:10.838Z,24.65
2018-09-15T15:42:40.345Z,24.81
2018-09-15T15:45:10.023Z,24.40
2018-09-15T15:47:39.622Z,25.12
2018-09-15T15:50:09.330Z,24.91
2018-09-15T15:52:38.936Z,25.71
2018-09-15T15:55:08.626Z,25.73
2018-09-15T15:57:38.215Z,25.57
2018-09-15T16:00:07.947Z,26.75
2018-09-15T16:02:37.560Z,26.43
2018-09-15T16:05:07.290Z,26.49
2018-09-15T16:07:36.886Z,26.42
2018-09-15T16:10:06.834Z,26.37
2018-09-15T16:12:36.337Z,26.44
2018-09-15T16:15:06.210Z,26.89
2018-09-15T16:17:35.756Z,26.56
2018-09-15T16:20:05.469Z,26.18
2018-09-15T16:22:35.054Z,26.29
2018-09-15T16:25:04.984Z,26.44
2018-09-15T16:27:34.631Z,26.41
2018-09-15T16:30:04.441Z,26.43
2018-09-15T16:32:34.133Z,26.92
2018-09-15T16:35:03.784Z,26.58
2018-09-15T16:37:33.388Z,27.20
2018-09-15T16:40:02.963Z,27.14
2018-09-15T16:42:32.483Z,27.27
2018-09-15T16:45:02.894Z,27.58
2018-09-15T16:47:32.508Z,27.05
2018-09-15T16:50:02.478Z,27.16
2018-09-15T16:52:34.784Z,27.49
2018-09-15T16:55:04.465Z,27.25
2018-09-15T16:57:35.341Z,27.38
2018-09-15T17:00:05.211Z,27.94
2018-09-15T17:02:34.840Z,28.08
2018-09-15T17:05:04.498Z,28.20
2018-09-15T17:07:34.071Z,28.69
2018-09-15T17:10:03.703Z,28.75
2018-09-15T17:12:33.300Z,29.00
2018-09-15T17:15:02.784Z,28.98
2018-09-15T17:17:32.299Z,29.92
2018-09-15T17:20:01.966Z,30.11
2018-09-15T17:22:31.637Z,30.16
2018-09-15T17:25:01.256Z,30.53
2018-09-15T17:27:30.909Z,31.06
2018-09-15T17:30:00.487Z,32.10
2018-09-15T17:32:29.966Z,31.91
2018-09-15T17:34:59.604Z,33.09
2018-09-15T17:37:29.105Z,32.78
2018-09-15T17:39:58.762Z,33.60
2018-09-15T17:42:28.287Z,33.92
2018-09-15T17:44:57.827Z,34.52
2018-09-15T17:47:27.456Z,35.31
2018-09-15T17:49:57.011Z,35.35
2018-09-15T17:52:26.629Z,36.02
2018-09-15T17:54:56.228Z,36.44
2018-09-15T17:57:25.878Z,36.52
2018-09-15T17:59:55.434Z,36.59
2018-09-15T18:02:25.058Z,36.92
2018-09-15T18:04:54.559Z,36.82
2018-09-15T18:07:24.091Z,36.55
2018-09-15T18:09:53.753Z,37.21
2018-09-15T18:12:23.279Z,37.62
2018-09-15T18:14:52.840Z,36.76
2018-09-15T18:17:22.400Z,37.38
2018-09-15T18:19:52.010Z,37.36
2018-09-15T18:22:21.676Z,37.55
2018-09-15T18:24:51.205Z,37.41
2018-09-15T18:27:21.517Z,36.83
2018-09-15T18:29:51.339Z,37.50
2018-09-15T18:32:21.583Z,37.60
2018-09-15T18:34:51.196Z,37.74
2018-09-15T18:37:20.728Z,37.67
2018-09-15T18:39:50.295Z,37.30
2018-09-15T18:42:19.917Z,37.82
2018-09-15T18:44:49.559Z,38.02
2018-09-15T18:47:19.134Z,38.13
2018-09-15T18:49:48.682Z,37.38
2018-09-15T18:52:18.215Z,37.45
2018-09-15T18:54:47.874Z,38.02
2018-09-15T18:57:17.459Z,38.67
2018-09-15T18:59:47.103Z,38.08
2018-09-15T19:02:16.697Z,38.74
2018-09-15T19:04:46.220Z,37.52
2018-09-15T19:07:15.796Z,37.98
2018-09-15T19:09:45.302Z,37.99
2018-09-15T19:12:14.835Z,38.42
2018-09-15T19:14:44.507Z,37.78
2018-09-15T19:17:14.020Z,38.07
2018-09-15T19:19:43.938Z,38.08
2018-09-15T19:22:13.470Z,38.56
2018-09-15T19:24:43.141Z,38.58
2018-09-15T19:27:12.742Z,38.36
2018-09-15T19:29:42.373Z,38.78
2018-09-15T19:32:12.267Z,38.72
2018-09-15T19:34:41.909Z,38.30
2018-09-15T19:37:11.767Z,38.59
2018-09-15T19:39:41.409Z,38.59
2018-09-15T19:42:11.883Z,38.56
2018-09-15T19:44:41.567Z,38.72
2018-09-15T19:47:11.131Z,38.39
2018-09-15T19:49:40.648Z,38.91
2018-09-15T19:52:10.281Z,38.15
2018-09-15T19:54:39.849Z,38.37
2018-09-15T19:57:09.375Z,38.68
2018-09-15T19:59:39.027Z,38.66
2018-09-15T20:02:08.748Z,39.24
2018-09-15T20:04:38.294Z,38.67
2018-09-15T20:07:07.842Z,38.34
2018-09-15T20:09:37.487Z,38.84
2018-09-15T20:12:07.134Z,38.52
2018-09-15T20:14:36.655Z,38.69
2018-09-15T20:17:04.736Z,38.68
2018-09-15T20:19:32.945Z,38.91
2018-09-15T20:22:02.534Z,39.43
2018-09-15T20:24:32.074Z,38.28
2018-09-15T20:27:01.616Z,38.60
2018-09-15T20:29:31.255Z,39.05
2018-09-15T20:32:00.793Z,39.63
2018-09-15T20:34:30.434Z,39.47
2018-09-15T20:36:59.959Z,39.45
2018-09-15T20:39:29.630Z,39.77
2018-09-15T20:41:59.228Z,40.01
2018-09-15T20:44:28.775Z,40.39
2018-09-15T20:46:58.261Z,40.36
2018-09-15T20:49:27.787Z,40.92
2018-09-15T20:51:57.271Z,40.57
2018-09-15T20:54:26.904Z,40.89
2018-09-15T20:56:56.454Z,41.05
2018-09-15T20:59:26.051Z,40.49
2018-09-15T21:01:55.637Z,41.03
2018-09-15T21:04:25.332Z,40.53
2018-09-15T21:06:54.835Z,41.22
2018-09-15T21:09:24.445Z,40.66
2018-09-15T21:11:54.032Z,41.47
2018-09-15T21:14:23.601Z,40.89
2018-09-15T21:16:53.229Z,40.82
2018-09-15T21:19:22.897Z,41.32
2018-09-15T21:21:52.521Z,41.44
2018-09-15T21:24:22.059Z,41.21
2018-09-15T21:26:51.570Z,40.98
2018-09-15T21:29:21.098Z,41.92
2018-09-15T21:31:50.652Z,41.12
2018-09-15T21:34:20.187Z,40.98
2018-09-15T21:36:49.713Z,41.07
2018-09-15T21:39:19.343Z,41.73
2018-09-15T21:41:48.842Z,41.88
2018-09-15T21:44:18.452Z,41.31
2018-09-15T21:46:47.959Z,41.24
2018-09-15T21:49:17.505Z,41.35
2018-09-15T21:51:47.004Z,41.29
2018-09-15T21:54:16.566Z,41.19
2018-09-15T21:56:46.170Z,41.81
2018-09-15T21:59:15.715Z,41.47
2018-09-15T22:01:45.219Z,41.41
2018-09-15T22:04:20.766Z,41.28
2018-09-15T22:06:51.921Z,42.00
2018-09-15T22:09:21.477Z,41.38
2018-09-15T22:11:51.124Z,42.06
2018-09-15T22:14:20.642Z,41.84
2018-09-15T22:16:50.196Z,41.77
2018-09-15T22:19:19.703Z,42.28
2018-09-15T22:21:49.243Z,42.10
2018-09-15T22:24:18.745Z,42.51
2018-09-15T22:26:48.306Z,41.83
2018-09-15T22:29:17.795Z,42.00
2018-09-15T22:31:47.421Z,42.55
2018-09-15T22:34:16.920Z,42.64
2018-09-15T22:36:46.459Z,42.88
2018-09-15T22:39:15.963Z,43.04
2018-09-15T22:41:45.491Z,42.51
2018-09-15T22:44:14.994Z,42.52
2018-09-15T22:46:44.514Z,42.58
2018-09-15T22:49:14.008Z,43.28
2018-09-15T22:51:43.499Z,43.25
2018-09-15T22:54:13.077Z,43.60
2018-09-15T22:56:42.612Z,43.72
2018-09-15T22:59:12.132Z,43.55
2018-09-15T23:01:41.689Z,42.72
2018-09-15T23:04:12.950Z,43.65
2018-09-15T23:06:42.535Z,43.33
2018-09-15T23:09:12.555Z,43.77
2018-09-15T23:11:42.095Z,43.63
2018-09-15T23:14:11.599Z,43.38
2018-09-15T23:16:41.173Z,43.95
2018-09-15T23:19:10.716Z,44.03
2018-09-15T23:21:40.223Z,44.34
2018-09-15T23:24:09.771Z,44.25
2018-09-15T23:26:39.311Z,43.49
2018-09-15T23:29:08.868Z,44.28
2018-09-15T23:31:38.371Z,43.92
2018-09-15T23:34:08.027Z,44.02
2018-09-15T23:36:37.506Z,44.30
2018-09-15T23:39:08.878Z,43.99
2018-09-15T23:41:38.515Z,44.44
2018-09-15T23:44:08.071Z,44.18
2018-09-15T23:46:37.773Z,44.16
2018-09-15T23:49:07.274Z,44.24
2018-09-15T23:51:36.794Z,44.01
2018-09-15T23:54:06.326Z,44.09
2018-09-15T23:56:35.823Z,44.12
2018-09-15T23:59:05.619Z,44.80
